Time;durP1;ratioP1;P1;durP2;ratioP2;P2;SDS_P1;SDS_P2;PMS_P1;PMS_P2;Temp;Humidity;BMP_temperature;BMP_pressure;BME280_temperature;BME280_humidity;BME280_pressure;Samples;Min_cycle;Max_cycle;Signal;HPM_P1;HPM_P2
2023/06/15 00:00:55;;;;;;;3.37;3.07;;;;;24.10;100744.00;;;;2076736;28;20217;-55
2023/06/15 00:01:55;;;;;;;3.37;3.07;;;;;24.10;100751.00;;;;2077260;28;20254;-56
2023/06/15 00:02:56;;;;;;;3.20;2.90;;;;;24.10;100743.00;;;;2078090;28;20210;-57
2023/06/15 00:03:56;;;;;;;3.70;2.70;;;;;24.10;100749.00;;;;2072580;28;20531;-57
2023/06/15 00:04:56;;;;;;;3.27;2.97;;;;;24.00;100739.00;;;;2072300;28;20210;-56
2023/06/15 00:05:57;;;;;;;3.93;3.53;;;;;24.00;100744.00;;;;2078975;28;20209;-56
2023/06/15 00:06:57;;;;;;;3.50;3.20;;;;;24.00;100747.00;;;;2073326;28;20252;-56
2023/06/15 00:07:58;;;;;;;3.90;2.97;;;;;24.00;100741.00;;;;2078160;28;20221;-56
2023/06/15 00:08:58;;;;;;;3.43;2.80;;;;;24.00;100744.00;;;;2070656;28;20260;-56
2023/06/15 00:09:59;;;;;;;3.20;2.67;;;;;24.00;100747.00;;;;2078237;28;20232;-56
2023/06/15 00:11:00;;;;;;;3.10;2.67;;;;;24.00;100743.00;;;;2072289;28;20214;-56
2023/06/15 00:12:00;;;;;;;3.63;2.90;;;;;24.00;100746.00;;;;2075194;28;20464;-56
2023/06/15 00:13:01;;;;;;;3.20;2.70;;;;;24.00;100748.00;;;;2078128;28;20225;-57
2023/06/15 00:14:01;;;;;;;3.20;2.90;;;;;24.00;100779.00;;;;2065424;28;20229;-57
2023/06/15 00:15:02;;;;;;;2.80;2.60;;;;;24.00;100757.00;;;;2075576;28;21150;-54
2023/06/15 00:16:03;;;;;;;5.20;2.75;;;;;24.00;100760.00;;;;2065390;28;20585;-55
2023/06/15 00:17:03;;;;;;;3.20;2.90;;;;;24.00;100747.00;;;;2060545;28;20223;-55
2023/06/15 00:18:05;;;;;;;3.40;2.93;;;;;24.00;100750.00;;;;2075127;28;20228;-54
2023/06/15 00:19:05;;;;;;;3.20;2.70;;;;;24.00;100755.00;;;;2066180;28;20845;-55
2023/06/15 00:20:08;;;;;;;3.40;3.10;;;;;24.00;100754.00;;;;2077929;28;20210;-54
2023/06/15 00:21:09;;;;;;;3.17;2.85;;;;;24.00;100746.00;;;;2079830;28;20271;-55
2023/06/15 00:22:14;;;;;;;3.47;3.17;;;;;24.00;100758.00;;;;2060550;28;20267;-55
2023/06/15 00:23:17;;;;;;;3.47;3.17;;;;;24.00;100759.00;;;;2070558;28;20220;-55
2023/06/15 00:24:17;;;;;;;3.22;2.95;;;;;24.00;100751.00;;;;2068564;28;20275;-55
2023/06/15 00:25:17;;;;;;;3.03;2.80;;;;;24.00;100754.00;;;;2071020;28;20632;-56
2023/06/15 00:26:18;;;;;;;2.80;2.60;;;;;24.00;100744.00;;;;2077229;28;20622;-55
2023/06/15 00:27:18;;;;;;;3.30;3.00;;;;;24.00;100756.00;;;;2077760;28;20566;-55
2023/06/15 00:28:18;;;;;;;3.10;2.83;;;;;24.00;100758.00;;;;2072691;28;20224;-54
2023/06/15 00:29:19;;;;;;;4.70;3.40;;;;;24.00;100758.00;;;;2059542;28;20365;-55
2023/06/15 00:30:19;;;;;;;3.63;2.63;;;;;23.90;100757.00;;;;2070394;28;20292;-55
2023/06/15 00:31:20;;;;;;;3.33;3.03;;;;;24.00;100759.00;;;;2071057;28;20236;-55
2023/06/15 00:32:20;;;;;;;4.30;3.00;;;;;24.00;100750.00;;;;2069281;28;20261;-55
2023/06/15 00:33:20;;;;;;;4.50;2.83;;;;;24.00;100769.00;;;;2076829;28;20220;-55
2023/06/15 00:34:21;;;;;;;3.23;2.87;;;;;24.00;100759.00;;;;2067636;28;21089;-55
2023/06/15 00:35:21;;;;;;;2.80;2.60;;;;;23.90;100752.00;;;;2073460;28;20679;-55
2023/06/15 00:36:21;;;;;;;3.53;3.23;;;;;23.90;100757.00;;;;2072445;28;20651;-56
2023/06/15 00:37:22;;;;;;;4.47;3.10;;;;;23.90;100768.00;;;;2071406;28;20722;-56
2023/06/15 00:38:22;;;;;;;3.93;3.30;;;;;23.90;100767.00;;;;2063239;28;20636;-55
2023/06/15 00:39:23;;;;;;;3.13;2.83;;;;;23.90;100764.00;;;;2067313;28;20218;-55
2023/06/15 00:40:23;;;;;;;3.00;2.70;;;;;23.90;100772.00;;;;2075583;28;20232;-54
2023/06/15 00:41:23;;;;;;;3.03;2.73;;;;;23.90;100763.00;;;;2074285;28;20245;-55
2023/06/15 00:42:24;;;;;;;3.10;2.80;;;;;23.90;100766.00;;;;2073303;28;20279;-56
2023/06/15 00:43:24;;;;;;;2.90;2.60;;;;;23.90;100769.00;;;;2067085;28;20221;-56
2023/06/15 00:44:24;;;;;;;3.37;3.07;;;;;23.90;100767.00;;;;2071271;28;20222;-55
2023/06/15 00:45:24;;;;;;;3.30;3.00;;;;;23.90;100768.00;;;;2077411;28;20221;-56
2023/06/15 00:46:25;;;;;;;6.60;3.00;;;;;23.90;100767.00;;;;2076166;28;20217;-56
2023/06/15 00:47:25;;;;;;;2.70;2.50;;;;;23.90;100776.00;;;;2072973;28;20218;-55
2023/06/15 00:48:26;;;;;;;2.73;2.50;;;;;23.90;100763.00;;;;2044842;28;20223;-55
2023/06/15 00:49:26;;;;;;;3.47;3.17;;;;;23.90;100772.00;;;;2054155;28;20215;-56
2023/06/15 00:50:30;;;;;;;3.77;2.60;;;;;23.90;100765.00;;;;2058881;28;20305;-55
2023/06/15 00:51:31;;;;;;;3.88;2.85;;;;;23.90;100769.00;;;;2050886;28;20620;-55
2023/06/15 00:52:31;;;;;;;3.55;3.13;;;;;23.90;100775.00;;;;2061012;28;20293;-55
2023/06/15 00:53:32;;;;;;;2.90;2.60;;;;;23.90;100766.00;;;;2069101;28;20208;-54
2023/06/15 00:54:33;;;;;;;3.90;3.07;;;;;23.90;100775.00;;;;2056361;28;20301;-55
2023/06/15 00:55:34;;;;;;;3.20;2.90;;;;;23.80;100772.00;;;;2063661;28;20245;-55
2023/06/15 00:56:34;;;;;;;2.60;2.40;;;;;23.80;100773.00;;;;2073738;28;22207;-54
2023/06/15 00:57:35;;;;;;;3.20;2.90;;;;;23.80;100777.00;;;;2073101;28;20218;-55
2023/06/15 00:58:35;;;;;;;3.00;2.80;;;;;23.80;100776.00;;;;2061004;28;20997;-56
2023/06/15 00:59:35;;;;;;;3.10;2.90;;;;;23.80;100775.00;;;;2076438;28;20689;-56
2023/06/15 01:00:37;;;;;;;2.80;2.60;;;;;23.80;100769.00;;;;2068417;28;20674;-56
2023/06/15 01:01:37;;;;;;;2.70;2.50;;;;;23.80;100778.00;;;;2068264;28;20274;-56
2023/06/15 01:02:40;;;;;;;3.43;3.07;;;;;23.80;100775.00;;;;2069384;28;20730;-56
2023/06/15 01:03:44;;;;;;;3.47;2.80;;;;;23.80;100771.00;;;;2059721;28;20240;-56
2023/06/15 01:04:44;;;;;;;3.00;2.70;;;;;23.80;100770.00;;;;2073463;28;20220;-55
2023/06/15 01:05:45;;;;;;;3.00;2.70;;;;;23.80;100769.00;;;;2074118;28;20232;-55
2023/06/15 01:06:51;;;;;;;3.13;2.90;;;;;23.80;100772.00;;;;2075218;28;20218;-56
2023/06/15 01:07:52;;;;;;;4.30;3.20;;;;;23.90;100770.00;;;;2074019;28;20229;-57
2023/06/15 01:08:52;;;;;;;3.00;2.80;;;;;23.80;100777.00;;;;2060006;28;20251;-55
2023/06/15 01:09:53;;;;;;;3.10;2.90;;;;;23.80;100777.00;;;;2068204;28;20214;-57
2023/06/15 01:10:53;;;;;;;3.37;3.10;;;;;23.80;100764.00;;;;2076945;28;20221;-56
2023/06/15 01:11:54;;;;;;;2.80;2.60;;;;;23.80;100779.00;;;;2067348;28;20222;-56
2023/06/15 01:12:54;;;;;;;3.42;3.13;;;;;23.80;100773.00;;;;2066024;28;20218;-55
2023/06/15 01:13:55;;;;;;;3.33;3.03;;;;;23.80;100774.00;;;;2055078;28;20221;-55
2023/06/15 01:14:55;;;;;;;3.83;3.07;;;;;23.80;100773.00;;;;2076844;28;20256;-55
2023/06/15 01:15:56;;;;;;;3.93;2.93;;;;;23.80;100759.00;;;;2071049;28;20222;-56
2023/06/15 01:16:58;;;;;;;2.80;2.60;;;;;23.80;100769.00;;;;2068636;28;20233;-55
2023/06/15 01:17:59;;;;;;;3.25;2.95;;;;;23.80;100767.00;;;;2060657;28;20218;-56
2023/06/15 01:18:59;;;;;;;2.97;2.60;;;;;23.80;100775.00;;;;2055429;28;20218;-55
2023/06/15 01:20:06;;;;;;;3.03;2.77;;;;;23.80;100766.00;;;;2076846;28;20218;-55
2023/06/15 01:21:06;;;;;;;7.70;3.33;;;;;23.80;100772.00;;;;2067899;28;20256;-55
2023/06/15 01:22:29;;;;;;;2.97;2.60;;;;;23.80;100774.00;;;;2061737;28;20228;-56
2023/06/15 01:23:40;;;;;;;2.63;2.42;;;;;23.80;100766.00;;;;2057623;28;20296;-55
2023/06/15 01:24:41;;;;;;;3.17;2.95;;;;;23.80;100766.00;;;;2074796;28;20411;-56
2023/06/15 01:25:44;;;;;;;3.33;3.03;;;;;23.80;100766.00;;;;2075711;28;20301;-55
2023/06/15 01:26:46;;;;;;;3.10;2.90;;;;;23.80;100760.00;;;;2074155;28;20221;-55
2023/06/15 01:27:49;;;;;;;3.25;2.95;;;;;23.80;100754.00;;;;2068170;28;20233;-55
2023/06/15 01:28:49;;;;;;;3.15;2.85;;;;;23.80;100765.00;;;;2051706;28;20717;-56
2023/06/15 01:29:52;;;;;;;3.00;2.80;;;;;23.50;100767.00;;;;2060826;28;20214;-55
2023/06/15 01:30:55;;;;;;;3.55;3.00;;;;;23.80;100761.00;;;;2064251;28;20261;-55
2023/06/15 01:31:57;;;;;;;3.30;2.97;;;;;23.80;100764.00;;;;2062993;28;20591;-55
2023/06/15 01:32:57;;;;;;;2.90;2.60;;;;;23.80;100760.00;;;;2064388;28;20223;-55
2023/06/15 01:34:00;;;;;;;3.27;3.00;;;;;23.70;100763.00;;;;2057204;28;20214;-56
2023/06/15 01:35:00;;;;;;;2.67;2.47;;;;;23.70;100759.00;;;;2071133;28;20609;-55
2023/06/15 01:36:01;;;;;;;3.83;3.20;;;;;23.70;100769.00;;;;2061183;28;20221;-56
2023/06/15 01:37:01;;;;;;;3.10;2.80;;;;;23.70;100765.00;;;;2052449;28;20306;-56
2023/06/15 01:38:02;;;;;;;2.73;2.53;;;;;23.70;100765.00;;;;2062685;28;20326;-55
2023/06/15 01:39:02;;;;;;;2.87;2.67;;;;;23.70;100766.00;;;;2065202;28;20694;-58
2023/06/15 01:40:03;;;;;;;4.73;3.07;;;;;23.70;100771.00;;;;2054218;28;20731;-55
2023/06/15 01:41:03;;;;;;;2.63;2.43;;;;;23.70;100761.00;;;;2048340;28;20249;-56
2023/06/15 01:42:04;;;;;;;2.70;2.50;;;;;23.70;100777.00;;;;2058031;28;20227;-56
2023/06/15 01:43:05;;;;;;;2.70;2.50;;;;;23.70;100773.00;;;;2062461;28;20221;-56
2023/06/15 01:44:06;;;;;;;3.27;2.97;;;;;23.70;100765.00;;;;2066471;28;20228;-55
2023/06/15 01:45:07;;;;;;;2.60;2.40;;;;;23.70;100770.00;;;;2067632;28;21151;-55
2023/06/15 01:46:07;;;;;;;2.97;2.67;;;;;23.70;100770.00;;;;2054801;28;20223;-56
2023/06/15 01:47:08;;;;;;;6.03;2.83;;;;;23.70;100769.00;;;;2055425;28;20228;-55
2023/06/15 01:48:08;;;;;;;3.20;2.90;;;;;23.70;100777.00;;;;2075703;28;20778;-55
2023/06/15 01:49:09;;;;;;;3.90;2.73;;;;;23.70;100770.00;;;;2064962;28;20515;-56
2023/06/15 01:50:10;;;;;;;3.27;2.90;;;;;23.70;100759.00;;;;2069994;28;20293;-56
2023/06/15 01:51:10;;;;;;;3.50;2.60;;;;;23.70;100775.00;;;;2074740;28;20259;-55
2023/06/15 01:52:10;;;;;;;3.13;2.93;;;;;23.70;100768.00;;;;2074967;28;21098;-55
2023/06/15 01:53:11;;;;;;;3.20;2.90;;;;;23.70;100773.00;;;;2077272;28;21073;-56
2023/06/15 01:54:11;;;;;;;3.70;3.10;;;;;23.70;100770.00;;;;2065384;28;20209;-57
2023/06/15 01:55:11;;;;;;;3.03;2.77;;;;;23.70;100772.00;;;;2076649;28;20252;-56
2023/06/15 01:56:13;;;;;;;5.43;3.10;;;;;23.70;100776.00;;;;2075334;28;20210;-56
2023/06/15 01:57:13;;;;;;;3.85;2.78;;;;;23.70;100780.00;;;;2076106;28;20981;-56
2023/06/15 01:58:15;;;;;;;2.90;2.50;;;;;23.70;100780.00;;;;2076641;28;20248;-56
2023/06/15 01:59:15;;;;;;;3.17;2.88;;;;;23.70;100776.00;;;;2063840;28;20244;-56
2023/06/15 02:00:16;;;;;;;3.30;3.00;;;;;23.70;100774.00;;;;2077001;28;20266;-54
2023/06/15 02:01:16;;;;;;;3.53;2.90;;;;;23.70;100778.00;;;;2076177;28;20213;-52
2023/06/15 02:02:17;;;;;;;4.30;2.80;;;;;23.70;100779.00;;;;2068533;28;20217;-54
2023/06/15 02:03:17;;;;;;;4.60;3.03;;;;;23.70;100777.00;;;;2077083;28;20217;-54
2023/06/15 02:04:17;;;;;;;2.93;2.63;;;;;23.70;100776.00;;;;2074053;28;20236;-58
2023/06/15 02:05:18;;;;;;;4.23;3.10;;;;;23.60;100784.00;;;;2071404;28;20296;-56
2023/06/15 02:06:18;;;;;;;2.90;2.70;;;;;23.70;100780.00;;;;2068695;28;20222;-53
2023/06/15 02:07:18;;;;;;;3.40;3.10;;;;;23.60;100778.00;;;;2075876;28;20233;-54
2023/06/15 02:08:19;;;;;;;4.10;3.13;;;;;23.60;100772.00;;;;2077413;28;20232;-56
2023/06/15 02:09:19;;;;;;;3.17;2.87;;;;;23.60;100774.00;;;;2070098;28;20347;-57
2023/06/15 02:10:22;;;;;;;2.90;2.70;;;;;23.60;100791.00;;;;2076289;28;20236;-54
2023/06/15 02:11:22;;;;;;;3.42;2.92;;;;;23.60;100773.00;;;;2069048;28;20232;-57
2023/06/15 02:12:22;;;;;;;3.03;2.73;;;;;23.60;100787.00;;;;2074931;28;20229;-53
2023/06/15 02:13:23;;;;;;;4.40;2.90;;;;;23.60;100784.00;;;;2064337;28;20260;-53
2023/06/15 02:14:23;;;;;;;3.40;3.10;;;;;23.60;100783.00;;;;2073455;28;20241;-55
2023/06/15 02:15:23;;;;;;;3.23;2.93;;;;;23.60;100783.00;;;;2070041;28;22779;-57
2023/06/15 02:16:24;;;;;;;3.73;3.30;;;;;23.60;100783.00;;;;2075916;28;20225;-56
2023/06/15 02:17:24;;;;;;;3.80;2.63;;;;;23.60;100787.00;;;;2069081;28;20279;-56
2023/06/15 02:18:30;;;;;;;3.20;2.77;;;;;23.60;100781.00;;;;2061824;28;20593;-53
2023/06/15 02:19:30;;;;;;;3.63;2.60;;;;;23.60;100782.00;;;;2076775;28;20646;-57
2023/06/15 02:20:31;;;;;;;3.03;2.73;;;;;23.60;100786.00;;;;2074899;28;20229;-57
2023/06/15 02:21:31;;;;;;;5.20;3.00;;;;;23.60;100787.00;;;;2073413;28;20704;-55
2023/06/15 02:22:32;;;;;;;3.80;3.27;;;;;23.60;100790.00;;;;2074800;28;20256;-57
2023/06/15 02:23:32;;;;;;;3.00;2.77;;;;;23.60;100792.00;;;;2066640;28;20221;-56
2023/06/15 02:24:32;;;;;;;3.40;2.57;;;;;23.60;100786.00;;;;2075727;28;20221;-55
2023/06/15 02:25:33;;;;;;;3.40;2.70;;;;;23.60;100797.00;;;;2075702;28;20217;-55
2023/06/15 02:26:33;;;;;;;2.90;2.70;;;;;23.60;100803.00;;;;2075565;28;20221;-55
2023/06/15 02:27:34;;;;;;;3.30;2.93;;;;;23.60;100792.00;;;;2073850;28;20611;-56
2023/06/15 02:28:34;;;;;;;3.03;2.83;;;;;23.50;100784.00;;;;2062838;28;20275;-57
2023/06/15 02:29:35;;;;;;;3.53;3.20;;;;;23.50;100789.00;;;;2068122;28;20233;-56
2023/06/15 02:30:35;;;;;;;3.40;2.60;;;;;23.50;100781.00;;;;2067540;28;20221;-60
2023/06/15 02:31:36;;;;;;;3.23;2.70;;;;;23.50;100786.00;;;;2072433;28;20233;-54
2023/06/15 02:32:37;;;;;;;3.07;2.77;;;;;23.50;100786.00;;;;2075642;28;20216;-56
2023/06/15 02:33:38;;;;;;;3.25;2.80;;;;;23.50;100784.00;;;;2067239;28;20464;-52
2023/06/15 02:34:38;;;;;;;2.83;2.63;;;;;23.50;100792.00;;;;2075599;28;20701;-55
2023/06/15 02:35:38;;;;;;;2.83;2.63;;;;;23.60;100786.00;;;;2073079;28;20604;-55
2023/06/15 02:36:39;;;;;;;2.90;2.70;;;;;23.50;100790.00;;;;2071454;28;20793;-56
2023/06/15 02:37:39;;;;;;;3.10;2.90;;;;;23.50;100790.00;;;;2068022;28;20364;-56
2023/06/15 02:38:40;;;;;;;3.43;3.00;;;;;23.50;100795.00;;;;2061006;28;20224;-55
2023/06/15 02:39:40;;;;;;;3.20;2.90;;;;;23.50;100781.00;;;;2075330;28;20209;-53
2023/06/15 02:40:41;;;;;;;2.87;2.67;;;;;23.50;100783.00;;;;2075387;28;20213;-57
2023/06/15 02:41:41;;;;;;;3.77;3.40;;;;;23.50;100783.00;;;;2074786;28;20830;-57
2023/06/15 02:42:41;;;;;;;5.33;2.73;;;;;23.50;100784.00;;;;2073410;28;20217;-56
2023/06/15 02:43:42;;;;;;;3.20;2.93;;;;;23.50;100788.00;;;;2066854;28;20221;-53
2023/06/15 02:44:42;;;;;;;3.37;3.07;;;;;23.50;100783.00;;;;2075590;28;20313;-55
2023/06/15 02:45:42;;;;;;;2.83;2.63;;;;;23.50;100782.00;;;;2076879;28;20213;-53
2023/06/15 02:46:43;;;;;;;3.20;2.70;;;;;23.50;100786.00;;;;2074340;28;20211;-54
2023/06/15 02:47:43;;;;;;;3.10;2.90;;;;;23.50;100782.00;;;;2075109;28;20209;-55
2023/06/15 02:48:44;;;;;;;2.80;2.60;;;;;23.50;100785.00;;;;2065786;28;20576;-55
2023/06/15 02:49:44;;;;;;;3.20;2.90;;;;;23.50;100787.00;;;;2075298;28;20224;-57
2023/06/15 02:50:45;;;;;;;3.00;2.80;;;;;23.50;100788.00;;;;2073093;28;20568;-57
2023/06/15 02:51:45;;;;;;;2.70;2.50;;;;;23.50;100793.00;;;;2071782;28;20213;-56
2023/06/15 02:52:46;;;;;;;2.93;2.73;;;;;23.50;100790.00;;;;2073820;28;20616;-55
2023/06/15 02:53:47;;;;;;;3.00;2.80;;;;;23.50;100806.00;;;;2066677;28;20229;-54
2023/06/15 02:54:47;;;;;;;3.00;2.80;;;;;23.50;100794.00;;;;2075947;28;20289;-56
2023/06/15 02:55:47;;;;;;;3.17;2.93;;;;;23.40;100794.00;;;;2076049;28;20680;-54
2023/06/15 02:56:48;;;;;;;3.53;3.23;;;;;23.50;100793.00;;;;2076012;28;20225;-55
2023/06/15 02:57:49;;;;;;;4.53;3.00;;;;;23.50;100785.00;;;;2075134;28;20205;-54
2023/06/15 02:58:53;;;;;;;5.00;2.90;;;;;23.50;100792.00;;;;2066100;28;20228;-57
2023/06/15 02:59:54;;;;;;;3.20;2.90;;;;;23.50;100785.00;;;;2076429;28;20685;-56
2023/06/15 03:00:55;;;;;;;3.00;2.80;;;;;23.50;100778.00;;;;2071574;28;20229;-56
2023/06/15 03:01:56;;;;;;;3.80;3.50;;;;;23.40;100788.00;;;;2080958;28;20205;-55
2023/06/15 03:02:57;;;;;;;3.97;2.93;;;;;23.40;100793.00;;;;2081496;28;20235;-57
2023/06/15 03:03:57;;;;;;;5.10;2.67;;;;;23.50;100787.00;;;;2061611;28;20225;-57
2023/06/15 03:04:57;;;;;;;3.30;3.00;;;;;23.50;100786.00;;;;2074907;28;20227;-55
2023/06/15 03:05:58;;;;;;;2.87;2.67;;;;;23.40;100792.00;;;;2071536;28;20218;-54
2023/06/15 03:06:59;;;;;;;3.03;2.73;;;;;23.40;100793.00;;;;2068907;28;20218;-56
2023/06/15 03:07:59;;;;;;;3.50;3.20;;;;;23.40;100793.00;;;;2074435;28;20221;-57
2023/06/15 03:09:00;;;;;;;3.23;2.93;;;;;23.40;100792.00;;;;2066637;28;20447;-54
2023/06/15 03:10:01;;;;;;;3.60;2.87;;;;;23.40;100795.00;;;;2073959;28;20213;-56
2023/06/15 03:11:02;;;;;;;3.20;2.90;;;;;23.10;100790.00;;;;2077384;28;20217;-57
2023/06/15 03:12:03;;;;;;;3.63;3.08;;;;;23.40;100789.00;;;;2069441;28;20214;-56
2023/06/15 03:13:03;;;;;;;3.73;2.90;;;;;23.40;100791.00;;;;2068194;28;20245;-57
2023/06/15 03:14:03;;;;;;;3.23;2.93;;;;;23.40;100789.00;;;;2065160;28;20221;-56
2023/06/15 03:15:04;;;;;;;3.37;3.07;;;;;23.40;100797.00;;;;2071946;28;20241;-57
2023/06/15 03:16:07;;;;;;;4.22;3.05;;;;;23.40;100721.00;;;;2076288;28;20713;-56
2023/06/15 03:17:10;;;;;;;3.25;2.95;;;;;23.40;100794.00;;;;2070687;28;20698;-56
2023/06/15 03:18:11;;;;;;;2.90;2.65;;;;;23.40;100790.00;;;;2066646;28;20308;-56
2023/06/15 03:19:14;;;;;;;2.92;2.72;;;;;23.40;100796.00;;;;2060489;28;20214;-55
2023/06/15 03:20:14;;;;;;;2.75;2.50;;;;;23.40;100797.00;;;;2071421;28;20224;-56
2023/06/15 03:21:14;;;;;;;3.40;3.10;;;;;23.40;100797.00;;;;2073268;28;20730;-55
2023/06/15 03:22:15;;;;;;;3.53;2.80;;;;;23.40;100789.00;;;;2076568;28;20213;-55
2023/06/15 03:23:15;;;;;;;3.67;3.00;;;;;23.40;100795.00;;;;2077707;28;20217;-55
2023/06/15 03:24:16;;;;;;;2.90;2.70;;;;;23.40;100799.00;;;;2068590;28;20209;-55
2023/06/15 03:25:16;;;;;;;4.40;3.00;;;;;23.30;100788.00;;;;2070824;28;20276;-55
2023/06/15 03:26:17;;;;;;;3.90;3.00;;;;;23.40;100794.00;;;;2073000;28;20222;-55
2023/06/15 03:27:17;;;;;;;4.50;3.40;;;;;23.40;100793.00;;;;2077429;28;20213;-54
2023/06/15 03:28:23;;;;;;;8.30;2.90;;;;;23.30;100784.00;;;;2076899;28;20223;-54
2023/06/15 03:29:26;;;;;;;4.32;2.90;;;;;23.40;100792.00;;;;2069279;28;20219;-55
2023/06/15 03:30:27;;;;;;;3.33;2.97;;;;;23.40;100792.00;;;;2077420;28;20260;-55
2023/06/15 03:31:28;;;;;;;3.73;2.77;;;;;23.30;100797.00;;;;2074922;28;20245;-55
2023/06/15 03:32:29;;;;;;;3.00;2.80;;;;;23.40;100792.00;;;;2070796;28;20214;-56
2023/06/15 03:33:29;;;;;;;4.03;2.97;;;;;23.30;100805.00;;;;2068571;28;20210;-54
2023/06/15 03:34:29;;;;;;;3.83;3.30;;;;;23.30;100791.00;;;;2077342;28;20561;-55
2023/06/15 03:35:30;;;;;;;3.03;2.83;;;;;23.30;100799.00;;;;2074425;28;20662;-56
2023/06/15 03:36:31;;;;;;;3.60;2.90;;;;;23.30;100792.00;;;;2078169;28;20978;-56
2023/06/15 03:37:32;;;;;;;3.30;3.00;;;;;23.30;100797.00;;;;2076862;28;20218;-55
2023/06/15 03:38:32;;;;;;;5.10;3.20;;;;;23.30;100792.00;;;;2062641;28;20287;-56
2023/06/15 03:39:33;;;;;;;4.60;3.50;;;;;23.30;100794.00;;;;2076754;28;20888;-55
2023/06/15 03:40:36;;;;;;;3.33;2.73;;;;;23.30;100797.00;;;;2072219;28;20213;-56
2023/06/15 03:41:37;;;;;;;3.35;2.95;;;;;23.30;100794.00;;;;2060795;28;20559;-56
2023/06/15 03:42:37;;;;;;;4.40;2.90;;;;;23.30;100797.00;;;;2077331;28;20232;-55
2023/06/15 03:43:37;;;;;;;3.27;2.90;;;;;23.10;100789.00;;;;2068044;28;20320;-54
2023/06/15 03:44:38;;;;;;;3.50;3.20;;;;;23.30;100797.00;;;;2079974;28;20241;-54
2023/06/15 03:45:38;;;;;;;3.37;3.07;;;;;23.30;100793.00;;;;2081037;28;20216;-54
2023/06/15 03:46:41;;;;;;;3.60;3.13;;;;;23.30;100795.00;;;;2072544;28;20217;-56
2023/06/15 03:47:41;;;;;;;4.32;3.45;;;;;23.30;100789.00;;;;2080077;28;20584;-56
2023/06/15 03:48:41;;;;;;;3.70;3.23;;;;;23.30;100792.00;;;;2072470;28;20253;-53
2023/06/15 03:49:42;;;;;;;3.00;2.80;;;;;23.30;100798.00;;;;2073407;28;20210;-54
2023/06/15 03:50:42;;;;;;;3.73;3.00;;;;;23.30;100788.00;;;;2073448;28;20220;-56
2023/06/15 03:51:42;;;;;;;4.10;3.70;;;;;23.30;100794.00;;;;2073265;28;20217;-54
2023/06/15 03:52:43;;;;;;;5.60;4.50;;;;;23.30;100794.00;;;;2070254;28;20214;-55
2023/06/15 03:53:43;;;;;;;3.50;3.20;;;;;23.30;100790.00;;;;2063130;28;20258;-57
2023/06/15 03:54:43;;;;;;;4.07;3.77;;;;;23.30;100797.00;;;;2075044;28;20275;-56
2023/06/15 03:55:44;;;;;;;3.70;3.40;;;;;23.30;100794.00;;;;2076805;28;20819;-57
2023/06/15 03:56:44;;;;;;;5.70;4.00;;;;;23.30;100801.00;;;;2074877;28;20561;-57
2023/06/15 03:57:45;;;;;;;5.63;3.57;;;;;23.20;100800.00;;;;2074456;28;20569;-53
2023/06/15 03:58:45;;;;;;;4.03;3.73;;;;;23.20;100808.00;;;;2061076;28;20252;-57
2023/06/15 03:59:46;;;;;;;5.30;3.70;;;;;23.20;100800.00;;;;2069547;28;20289;-56
2023/06/15 04:00:46;;;;;;;5.63;3.70;;;;;23.20;100797.00;;;;2064768;28;20218;-58
2023/06/15 04:01:46;;;;;;;4.17;3.77;;;;;23.20;100802.00;;;;2064247;28;20218;-57
2023/06/15 04:02:47;;;;;;;3.80;3.50;;;;;23.20;100805.00;;;;2070829;28;20293;-53
2023/06/15 04:03:47;;;;;;;3.83;3.53;;;;;23.20;100798.00;;;;2064273;28;20249;-53
2023/06/15 04:04:47;;;;;;;3.90;3.50;;;;;23.20;100802.00;;;;2069054;28;20216;-56
2023/06/15 04:05:49;;;;;;;3.80;3.50;;;;;23.30;100805.00;;;;2072398;28;20206;-57
2023/06/15 04:06:52;;;;;;;3.03;2.83;;;;;23.30;100807.00;;;;2078185;28;20225;-56
2023/06/15 04:07:53;;;;;;;4.30;3.70;;;;;23.30;100799.00;;;;2077569;28;20578;-56
2023/06/15 04:08:53;;;;;;;4.07;3.60;;;;;23.30;100809.00;;;;2061318;28;20314;-56
2023/06/15 04:09:53;;;;;;;3.97;3.57;;;;;23.30;100808.00;;;;2071631;28;20237;-56
2023/06/15 04:10:56;;;;;;;3.70;3.40;;;;;23.20;100808.00;;;;2075051;28;20237;-56
2023/06/15 04:11:57;;;;;;;3.53;3.20;;;;;23.20;100811.00;;;;2072064;28;20268;-56
2023/06/15 04:12:57;;;;;;;4.00;3.60;;;;;23.20;100803.00;;;;2064265;28;20268;-56
2023/06/15 04:13:57;;;;;;;3.47;3.17;;;;;23.20;100798.00;;;;2051967;28;20223;-56
2023/06/15 04:14:58;;;;;;;4.10;3.70;;;;;23.20;100814.00;;;;2070753;28;20255;-56
2023/06/15 04:15:58;;;;;;;3.60;3.30;;;;;23.20;100805.00;;;;2077609;28;20220;-56
2023/06/15 04:16:58;;;;;;;5.00;3.33;;;;;23.20;100813.00;;;;2076155;28;20209;-56
2023/06/15 04:18:00;;;;;;;3.90;3.60;;;;;23.20;100811.00;;;;2076037;28;20210;-56
2023/06/15 04:19:01;;;;;;;3.80;3.50;;;;;23.20;100807.00;;;;2059585;28;20237;-56
2023/06/15 04:20:04;;;;;;;3.33;3.03;;;;;23.20;100815.00;;;;2075867;28;20221;-56
2023/06/15 04:21:04;;;;;;;3.78;3.47;;;;;23.20;100811.00;;;;2076372;28;20463;-56
2023/06/15 04:22:05;;;;;;;3.63;3.33;;;;;23.20;100812.00;;;;2076682;28;20557;-55
2023/06/15 04:23:05;;;;;;;3.80;3.50;;;;;23.20;100805.00;;;;2077608;28;20347;-56
2023/06/15 04:24:06;;;;;;;4.03;3.60;;;;;23.20;100806.00;;;;2060926;28;20218;-56
2023/06/15 04:25:07;;;;;;;3.77;3.27;;;;;23.20;100802.00;;;;2076439;28;20214;-56
2023/06/15 04:26:08;;;;;;;4.22;3.50;;;;;23.20;100802.00;;;;2077172;28;20299;-56
2023/06/15 04:27:12;;;;;;;4.50;4.10;;;;;23.20;100797.00;;;;2074192;28;20296;-55
2023/06/15 04:28:12;;;;;;;4.38;4.07;;;;;23.20;100811.00;;;;2077500;28;20229;-59
2023/06/15 04:29:12;;;;;;;4.27;3.97;;;;;23.20;100814.00;;;;2065141;28;20216;-56
2023/06/15 04:30:16;;;;;;;4.50;4.20;;;;;23.20;100808.00;;;;2068057;28;20226;-55
2023/06/15 04:31:21;;;;;;;6.45;5.05;;;;;23.20;100817.00;;;;2075985;28;20215;-55
2023/06/15 04:32:25;;;;;;;5.30;4.35;;;;;23.20;100808.00;;;;2076417;28;20217;-55
2023/06/15 04:33:26;;;;;;;4.70;4.30;;;;;23.20;100814.00;;;;2067542;28;20216;-56
2023/06/15 04:34:26;;;;;;;5.63;5.10;;;;;23.20;100818.00;;;;2074804;28;20212;-56
2023/06/15 04:35:31;;;;;;;5.67;4.80;;;;;23.20;100812.00;;;;2068382;28;20251;-57
2023/06/15 04:36:34;;;;;;;4.90;4.50;;;;;23.20;100819.00;;;;2074224;28;20301;-55
2023/06/15 04:37:39;;;;;;;5.45;4.95;;;;;23.20;100816.00;;;;2076600;28;20210;-56
2023/06/15 04:38:46;;;;;;;5.35;4.85;;;;;23.20;100817.00;;;;2062431;28;20225;-56
2023/06/15 04:39:46;;;;;;;4.75;4.45;;;;;23.20;100809.00;;;;2083199;28;20284;-56
2023/06/15 04:40:48;;;;;;;4.77;4.30;;;;;23.20;100825.00;;;;2082442;28;20697;-56
2023/06/15 04:41:48;;;;;;;5.00;4.65;;;;;23.20;100814.00;;;;2073288;28;20301;-56
2023/06/15 04:42:48;;;;;;;5.50;5.10;;;;;23.20;100809.00;;;;2072434;28;20206;-56
2023/06/15 04:43:49;;;;;;;5.83;4.93;;;;;23.20;100822.00;;;;2067608;28;20690;-56
2023/06/15 04:44:49;;;;;;;4.93;4.53;;;;;23.20;100826.00;;;;2077980;28;20704;-55
2023/06/15 04:45:49;;;;;;;5.43;4.93;;;;;23.20;100810.00;;;;2077196;28;20271;-56
2023/06/15 04:46:50;;;;;;;4.20;3.80;;;;;23.20;100814.00;;;;2077776;28;20220;-56
2023/06/15 04:47:50;;;;;;;5.20;4.70;;;;;23.30;100817.00;;;;2072541;28;20225;-56
2023/06/15 04:48:51;;;;;;;4.50;4.20;;;;;23.20;100817.00;;;;2066986;28;20549;-56
2023/06/15 04:49:51;;;;;;;5.50;4.50;;;;;23.20;100814.00;;;;2069936;28;20217;-56
2023/06/15 04:50:51;;;;;;;4.40;4.00;;;;;23.20;100820.00;;;;2070553;28;20224;-56
2023/06/15 04:51:52;;;;;;;4.27;3.97;;;;;23.10;100819.00;;;;2073176;28;20210;-56
2023/06/15 04:52:52;;;;;;;4.90;4.40;;;;;23.20;100818.00;;;;2077183;28;20287;-56
2023/06/15 04:53:53;;;;;;;4.33;3.93;;;;;23.20;100818.00;;;;2067995;28;20257;-56
2023/06/15 04:54:53;;;;;;;4.27;3.93;;;;;23.20;100824.00;;;;2076724;28;20224;-56
2023/06/15 04:55:53;;;;;;;4.73;4.20;;;;;23.20;100825.00;;;;2068087;28;20875;-56
2023/06/15 04:56:54;;;;;;;4.30;4.00;;;;;23.20;100822.00;;;;2069863;28;20219;-56
2023/06/15 04:57:54;;;;;;;4.57;4.17;;;;;23.20;100831.00;;;;2077185;28;20208;-56
2023/06/15 04:58:55;;;;;;;5.43;4.57;;;;;23.20;100818.00;;;;2063324;28;20686;-56
2023/06/15 04:59:55;;;;;;;4.65;4.25;;;;;23.20;100820.00;;;;2074115;28;20313;-56
2023/06/15 05:00:56;;;;;;;4.20;3.90;;;;;23.20;100829.00;;;;2077470;28;20596;-56
2023/06/15 05:01:57;;;;;;;4.40;4.00;;;;;23.20;100825.00;;;;2073803;28;20209;-56